sensor_id;sensor_type;location;lat;lon;timestamp;P1;durP1;ratioP1;P2;durP2;ratioP2
54929;SDS011;40833;53.238;6.576;2023-06-26T00:27:33;10.10;;;5.05;;
54929;SDS011;40833;53.238;6.576;2023-06-26T00:29:59;6.35;;;5.72;;
54929;SDS011;40833;53.238;6.576;2023-06-26T00:32:25;7.43;;;5.10;;
54929;SDS011;40833;53.238;6.576;2023-06-26T00:34:51;6.30;;;5.75;;
54929;SDS011;40833;53.238;6.576;2023-06-26T00:37:18;6.35;;;4.47;;
54929;SDS011;40833;53.238;6.576;2023-06-26T00:39:44;5.60;;;5.07;;
54929;SDS011;40833;53.238;6.576;2023-06-26T00:42:10;5.85;;;5.40;;
54929;SDS011;40833;53.238;6.576;2023-06-26T00:44:36;5.43;;;4.93;;
54929;SDS011;40833;53.238;6.576;2023-06-26T00:47:02;6.05;;;5.55;;
54929;SDS011;40833;53.238;6.576;2023-06-26T00:49:28;8.60;;;5.57;;
54929;SDS011;40833;53.238;6.576;2023-06-26T00:51:54;5.68;;;5.18;;
54929;SDS011;40833;53.238;6.576;2023-06-26T00:54:20;6.00;;;5.43;;
54929;SDS011;40833;53.238;6.576;2023-06-26T00:56:47;6.50;;;5.75;;
54929;SDS011;40833;53.238;6.576;2023-06-26T00:59:13;7.15;;;6.45;;
54929;SDS011;40833;53.238;6.576;2023-06-26T01:01:39;10.75;;;5.38;;
54929;SDS011;40833;53.238;6.576;2023-06-26T01:04:05;7.43;;;5.80;;
54929;SDS011;40833;53.238;6.576;2023-06-26T01:06:31;6.07;;;5.55;;
54929;SDS011;40833;53.238;6.576;2023-06-26T01:09:02;6.88;;;6.22;;
54929;SDS011;40833;53.238;6.576;2023-06-26T01:11:28;6.82;;;6.10;;
54929;SDS011;40833;53.238;6.576;2023-06-26T01:13:54;6.28;;;5.68;;
54929;SDS011;40833;53.238;6.576;2023-06-26T01:16:21;5.97;;;5.57;;
54929;SDS011;40833;53.238;6.576;2023-06-26T01:18:52;8.98;;;5.93;;
54929;SDS011;40833;53.238;6.576;2023-06-26T01:21:18;6.70;;;6.15;;
54929;SDS011;40833;53.238;6.576;2023-06-26T01:26:46;7.33;;;6.63;;
54929;SDS011;40833;53.238;6.576;2023-06-26T01:29:15;9.07;;;5.72;;
54929;SDS011;40833;53.238;6.576;2023-06-26T01:31:41;7.20;;;5.88;;
54929;SDS011;40833;53.238;6.576;2023-06-26T01:34:08;6.20;;;5.60;;
54929;SDS011;40833;53.238;6.576;2023-06-26T01:36:34;8.63;;;6.05;;
54929;SDS011;40833;53.238;6.576;2023-06-26T01:39:02;7.28;;;6.20;;
54929;SDS011;40833;53.238;6.576;2023-06-26T01:41:28;6.88;;;6.28;;
54929;SDS011;40833;53.238;6.576;2023-06-26T01:44:01;6.07;;;5.57;;
54929;SDS011;40833;53.238;6.576;2023-06-26T01:46:39;7.10;;;5.95;;
54929;SDS011;40833;53.238;6.576;2023-06-26T01:52:29;6.13;;;5.60;;
54929;SDS011;40833;53.238;6.576;2023-06-26T01:55:15;6.80;;;6.22;;
54929;SDS011;40833;53.238;6.576;2023-06-26T01:57:41;6.65;;;6.00;;
54929;SDS011;40833;53.238;6.576;2023-06-26T02:00:09;6.97;;;5.50;;
54929;SDS011;40833;53.238;6.576;2023-06-26T02:02:36;6.85;;;5.72;;
54929;SDS011;40833;53.238;6.576;2023-06-26T02:05:02;7.78;;;5.93;;
54929;SDS011;40833;53.238;6.576;2023-06-26T02:07:27;7.47;;;6.75;;
54929;SDS011;40833;53.238;6.576;2023-06-26T02:09:53;8.07;;;6.53;;
54929;SDS011;40833;53.238;6.576;2023-06-26T02:12:19;6.10;;;5.47;;
54929;SDS011;40833;53.238;6.576;2023-06-26T02:14:45;8.13;;;6.07;;
54929;SDS011;40833;53.238;6.576;2023-06-26T02:17:10;6.10;;;5.50;;
54929;SDS011;40833;53.238;6.576;2023-06-26T02:19:36;7.45;;;5.85;;
54929;SDS011;40833;53.238;6.576;2023-06-26T02:22:10;6.25;;;5.65;;
54929;SDS011;40833;53.238;6.576;2023-06-26T02:24:36;7.18;;;6.03;;
54929;SDS011;40833;53.238;6.576;2023-06-26T02:27:02;8.20;;;6.10;;
54929;SDS011;40833;53.238;6.576;2023-06-26T02:29:28;7.90;;;6.53;;
54929;SDS011;40833;53.238;6.576;2023-06-26T02:31:54;5.82;;;5.32;;
54929;SDS011;40833;53.238;6.576;2023-06-26T02:34:19;8.13;;;6.47;;
54929;SDS011;40833;53.238;6.576;2023-06-26T02:36:45;7.07;;;6.38;;
54929;SDS011;40833;53.238;6.576;2023-06-26T02:39:11;7.18;;;5.95;;
54929;SDS011;40833;53.238;6.576;2023-06-26T02:41:36;6.45;;;5.85;;
54929;SDS011;40833;53.238;6.576;2023-06-26T02:44:02;10.18;;;6.57;;
54929;SDS011;40833;53.238;6.576;2023-06-26T02:46:28;8.00;;;6.03;;
54929;SDS011;40833;53.238;6.576;2023-06-26T02:48:53;7.13;;;6.50;;
54929;SDS011;40833;53.238;6.576;2023-06-26T02:51:19;8.50;;;6.07;;
54929;SDS011;40833;53.238;6.576;2023-06-26T02:53:45;8.10;;;6.65;;
54929;SDS011;40833;53.238;6.576;2023-06-26T02:56:10;7.78;;;7.00;;
54929;SDS011;40833;53.238;6.576;2023-06-26T02:58:36;7.45;;;6.75;;
54929;SDS011;40833;53.238;6.576;2023-06-26T03:01:02;9.70;;;6.82;;
54929;SDS011;40833;53.238;6.576;2023-06-26T03:03:28;7.60;;;6.90;;
54929;SDS011;40833;53.238;6.576;2023-06-26T03:05:53;7.80;;;7.00;;
54929;SDS011;40833;53.238;6.576;2023-06-26T03:08:19;7.90;;;7.20;;
54929;SDS011;40833;53.238;6.576;2023-06-26T03:10:45;10.90;;;6.88;;
54929;SDS011;40833;53.238;6.576;2023-06-26T03:13:11;13.02;;;7.60;;
54929;SDS011;40833;53.238;6.576;2023-06-26T03:15:37;8.80;;;8.00;;
54929;SDS011;40833;53.238;6.576;2023-06-26T03:18:02;8.13;;;7.47;;
54929;SDS011;40833;53.238;6.576;2023-06-26T03:20:28;8.73;;;7.93;;
54929;SDS011;40833;53.238;6.576;2023-06-26T03:22:54;13.15;;;7.65;;
54929;SDS011;40833;53.238;6.576;2023-06-26T03:25:20;8.93;;;8.07;;
54929;SDS011;40833;53.238;6.576;2023-06-26T03:27:45;8.90;;;8.00;;
54929;SDS011;40833;53.238;6.576;2023-06-26T03:30:11;8.93;;;8.13;;
54929;SDS011;40833;53.238;6.576;2023-06-26T03:32:37;9.23;;;8.30;;
54929;SDS011;40833;53.238;6.576;2023-06-26T03:35:02;9.60;;;8.02;;
54929;SDS011;40833;53.238;6.576;2023-06-26T03:37:28;9.82;;;8.75;;
54929;SDS011;40833;53.238;6.576;2023-06-26T03:39:54;10.43;;;8.32;;
54929;SDS011;40833;53.238;6.576;2023-06-26T03:42:20;11.85;;;9.07;;
54929;SDS011;40833;53.238;6.576;2023-06-26T03:44:45;9.70;;;8.70;;
54929;SDS011;40833;53.238;6.576;2023-06-26T03:47:11;12.30;;;8.77;;
54929;SDS011;40833;53.238;6.576;2023-06-26T03:49:36;11.27;;;8.57;;
54929;SDS011;40833;53.238;6.576;2023-06-26T03:52:02;10.48;;;8.55;;
54929;SDS011;40833;53.238;6.576;2023-06-26T03:54:28;8.77;;;7.93;;
54929;SDS011;40833;53.238;6.576;2023-06-26T03:56:53;9.68;;;8.65;;
54929;SDS011;40833;53.238;6.576;2023-06-26T03:59:20;13.38;;;8.52;;
54929;SDS011;40833;53.238;6.576;2023-06-26T04:01:45;9.82;;;8.02;;
54929;SDS011;40833;53.238;6.576;2023-06-26T04:04:11;10.35;;;8.65;;
54929;SDS011;40833;53.238;6.576;2023-06-26T04:06:36;13.40;;;9.20;;
54929;SDS011;40833;53.238;6.576;2023-06-26T04:09:02;11.38;;;8.98;;
54929;SDS011;40833;53.238;6.576;2023-06-26T04:11:28;9.48;;;8.57;;
54929;SDS011;40833;53.238;6.576;2023-06-26T04:13:54;9.23;;;8.27;;
54929;SDS011;40833;53.238;6.576;2023-06-26T04:16:20;11.55;;;8.52;;
54929;SDS011;40833;53.238;6.576;2023-06-26T04:18:46;12.10;;;8.05;;
54929;SDS011;40833;53.238;6.576;2023-06-26T04:21:12;9.95;;;8.52;;
54929;SDS011;40833;53.238;6.576;2023-06-26T04:23:39;8.80;;;7.63;;
54929;SDS011;40833;53.238;6.576;2023-06-26T04:26:05;13.32;;;8.85;;
54929;SDS011;40833;53.238;6.576;2023-06-26T04:28:35;10.35;;;8.13;;
54929;SDS011;40833;53.238;6.576;2023-06-26T04:31:01;9.52;;;8.57;;
54929;SDS011;40833;53.238;6.576;2023-06-26T04:33:30;14.98;;;7.82;;
54929;SDS011;40833;53.238;6.576;2023-06-26T04:35:56;11.70;;;8.13;;
54929;SDS011;40833;53.238;6.576;2023-06-26T04:38:22;10.20;;;7.63;;
54929;SDS011;40833;53.238;6.576;2023-06-26T04:40:48;12.18;;;8.10;;
54929;SDS011;40833;53.238;6.576;2023-06-26T04:43:14;13.18;;;7.65;;
54929;SDS011;40833;53.238;6.576;2023-06-26T04:45:40;9.45;;;7.32;;
54929;SDS011;40833;53.238;6.576;2023-06-26T04:48:06;13.15;;;7.50;;
54929;SDS011;40833;53.238;6.576;2023-06-26T04:50:32;8.13;;;6.60;;
54929;SDS011;40833;53.238;6.576;2023-06-26T04:52:58;9.30;;;6.80;;
54929;SDS011;40833;53.238;6.576;2023-06-26T04:55:24;9.30;;;6.32;;
54929;SDS011;40833;53.238;6.576;2023-06-26T04:57:50;13.65;;;8.05;;
54929;SDS011;40833;53.238;6.576;2023-06-26T05:00:16;13.05;;;7.30;;
54929;SDS011;40833;53.238;6.576;2023-06-26T05:02:42;15.15;;;7.20;;
54929;SDS011;40833;53.238;6.576;2023-06-26T05:05:08;9.93;;;7.68;;
54929;SDS011;40833;53.238;6.576;2023-06-26T05:07:34;18.75;;;9.18;;
54929;SDS011;40833;53.238;6.576;2023-06-26T05:09:59;14.30;;;8.77;;
54929;SDS011;40833;53.238;6.576;2023-06-26T05:12:25;15.38;;;9.07;;
54929;SDS011;40833;53.238;6.576;2023-06-26T05:14:51;19.25;;;9.52;;
54929;SDS011;40833;53.238;6.576;2023-06-26T05:17:17;17.90;;;10.05;;
54929;SDS011;40833;53.238;6.576;2023-06-26T05:19:42;11.30;;;8.77;;
54929;SDS011;40833;53.238;6.576;2023-06-26T05:22:08;18.95;;;10.65;;
54929;SDS011;40833;53.238;6.576;2023-06-26T05:24:38;29.20;;;10.90;;
54929;SDS011;40833;53.238;6.576;2023-06-26T05:27:04;20.38;;;9.43;;
54929;SDS011;40833;53.238;6.576;2023-06-26T05:29:31;21.02;;;10.30;;
54929;SDS011;40833;53.238;6.576;2023-06-26T05:31:58;20.58;;;9.50;;
54929;SDS011;40833;53.238;6.576;2023-06-26T05:34:24;20.45;;;9.10;;
54929;SDS011;40833;53.238;6.576;2023-06-26T05:36:54;16.95;;;7.45;;
54929;SDS011;40833;53.238;6.576;2023-06-26T05:39:23;17.02;;;6.15;;
54929;SDS011;40833;53.238;6.576;2023-06-26T05:41:49;16.25;;;5.88;;
54929;SDS011;40833;53.238;6.576;2023-06-26T05:44:16;11.70;;;5.32;;
54929;SDS011;40833;53.238;6.576;2023-06-26T05:46:42;17.33;;;6.47;;
54929;SDS011;40833;53.238;6.576;2023-06-26T05:49:08;14.95;;;6.68;;
54929;SDS011;40833;53.238;6.576;2023-06-26T05:51:35;13.40;;;5.80;;
54929;SDS011;40833;53.238;6.576;2023-06-26T05:54:01;16.83;;;5.85;;
54929;SDS011;40833;53.238;6.576;2023-06-26T05:56:27;20.50;;;6.30;;
54929;SDS011;40833;53.238;6.576;2023-06-26T05:58:53;12.95;;;5.05;;
54929;SDS011;40833;53.238;6.576;2023-06-26T06:01:19;17.95;;;5.55;;
54929;SDS011;40833;53.238;6.576;2023-06-26T06:03:45;17.15;;;5.05;;
54929;SDS011;40833;53.238;6.576;2023-06-26T06:06:11;16.25;;;4.80;;
54929;SDS011;40833;53.238;6.576;2023-06-26T06:08:37;14.40;;;4.40;;
54929;SDS011;40833;53.238;6.576;2023-06-26T06:11:03;14.77;;;4.32;;
54929;SDS011;40833;53.238;6.576;2023-06-26T06:13:28;18.45;;;4.70;;
54929;SDS011;40833;53.238;6.576;2023-06-26T06:15:54;22.50;;;5.40;;
54929;SDS011;40833;53.238;6.576;2023-06-26T06:18:21;16.17;;;4.30;;
54929;SDS011;40833;53.238;6.576;2023-06-26T06:20:47;13.98;;;4.05;;
54929;SDS011;40833;53.238;6.576;2023-06-26T06:23:13;21.08;;;4.00;;
54929;SDS011;40833;53.238;6.576;2023-06-26T06:25:39;17.73;;;3.28;;
54929;SDS011;40833;53.238;6.576;2023-06-26T06:28:05;14.32;;;3.60;;
54929;SDS011;40833;53.238;6.576;2023-06-26T06:30:31;12.45;;;3.10;;
54929;SDS011;40833;53.238;6.576;2023-06-26T06:32:57;15.85;;;3.45;;
54929;SDS011;40833;53.238;6.576;2023-06-26T06:35:23;8.23;;;2.45;;
54929;SDS011;40833;53.238;6.576;2023-06-26T06:37:49;17.90;;;3.13;;
54929;SDS011;40833;53.238;6.576;2023-06-26T06:40:16;12.65;;;2.88;;
54929;SDS011;40833;53.238;6.576;2023-06-26T06:42:42;15.15;;;3.50;;
54929;SDS011;40833;53.238;6.576;2023-06-26T06:45:09;14.63;;;3.10;;
54929;SDS011;40833;53.238;6.576;2023-06-26T06:47:35;14.73;;;2.65;;
54929;SDS011;40833;53.238;6.576;2023-06-26T06:50:01;12.95;;;3.08;;
54929;SDS011;40833;53.238;6.576;2023-06-26T06:55:05;13.60;;;2.47;;
54929;SDS011;40833;53.238;6.576;2023-06-26T06:57:33;14.50;;;2.55;;
54929;SDS011;40833;53.238;6.576;2023-06-26T07:00:04;9.60;;;2.35;;
54929;SDS011;40833;53.238;6.576;2023-06-26T07:02:34;12.60;;;2.03;;
54929;SDS011;40833;53.238;6.576;2023-06-26T07:05:00;8.95;;;1.77;;
54929;SDS011;40833;53.238;6.576;2023-06-26T07:07:28;8.98;;;1.92;;
54929;SDS011;40833;53.238;6.576;2023-06-26T07:09:56;10.43;;;2.05;;
54929;SDS011;40833;53.238;6.576;2023-06-26T07:12:25;3.50;;;0.98;;
54929;SDS011;40833;53.238;6.576;2023-06-26T07:14:51;8.57;;;1.33;;
54929;SDS011;40833;53.238;6.576;2023-06-26T07:17:16;4.68;;;1.33;;
54929;SDS011;40833;53.238;6.576;2023-06-26T07:19:42;8.15;;;1.50;;
54929;SDS011;40833;53.238;6.576;2023-06-26T07:22:08;10.50;;;1.92;;
54929;SDS011;40833;53.238;6.576;2023-06-26T07:24:33;8.02;;;1.48;;
54929;SDS011;40833;53.238;6.576;2023-06-26T07:26:59;7.65;;;1.80;;
54929;SDS011;40833;53.238;6.576;2023-06-26T07:29:25;9.27;;;1.73;;
54929;SDS011;40833;53.238;6.576;2023-06-26T07:31:51;7.15;;;1.75;;
54929;SDS011;40833;53.238;6.576;2023-06-26T07:34:17;13.02;;;1.52;;
54929;SDS011;40833;53.238;6.576;2023-06-26T07:36:43;4.97;;;0.82;;
54929;SDS011;40833;53.238;6.576;2023-06-26T07:39:08;6.20;;;1.45;;
54929;SDS011;40833;53.238;6.576;2023-06-26T07:41:34;9.10;;;1.27;;
54929;SDS011;40833;53.238;6.576;2023-06-26T07:44:00;8.57;;;1.58;;
54929;SDS011;40833;53.238;6.576;2023-06-26T07:46:26;9.18;;;1.88;;
54929;SDS011;40833;53.238;6.576;2023-06-26T07:48:51;8.00;;;1.25;;
54929;SDS011;40833;53.238;6.576;2023-06-26T07:51:17;8.05;;;1.33;;
54929;SDS011;40833;53.238;6.576;2023-06-26T07:53:43;4.97;;;0.95;;
54929;SDS011;40833;53.238;6.576;2023-06-26T07:56:09;5.53;;;1.02;;
54929;SDS011;40833;53.238;6.576;2023-06-26T07:58:34;4.68;;;0.93;;
54929;SDS011;40833;53.238;6.576;2023-06-26T08:01:00;6.93;;;1.00;;
54929;SDS011;40833;53.238;6.576;2023-06-26T08:03:25;7.93;;;1.35;;
54929;SDS011;40833;53.238;6.576;2023-06-26T08:05:51;5.53;;;0.90;;
54929;SDS011;40833;53.238;6.576;2023-06-26T08:08:17;4.78;;;1.00;;
54929;SDS011;40833;53.238;6.576;2023-06-26T08:10:42;6.80;;;1.20;;
54929;SDS011;40833;53.238;6.576;2023-06-26T08:13:08;10.35;;;0.95;;
54929;SDS011;40833;53.238;6.576;2023-06-26T08:15:34;6.45;;;1.00;;
54929;SDS011;40833;53.238;6.576;2023-06-26T08:18:00;6.88;;;1.55;;
54929;SDS011;40833;53.238;6.576;2023-06-26T08:20:25;4.45;;;0.75;;
54929;SDS011;40833;53.238;6.576;2023-06-26T08:22:51;2.75;;;0.57;;
54929;SDS011;40833;53.238;6.576;2023-06-26T08:25:18;5.97;;;0.85;;
54929;SDS011;40833;53.238;6.576;2023-06-26T08:27:44;4.63;;;0.90;;
54929;SDS011;40833;53.238;6.576;2023-06-26T08:30:10;6.90;;;1.60;;
54929;SDS011;40833;53.238;6.576;2023-06-26T08:32:36;6.28;;;1.17;;
54929;SDS011;40833;53.238;6.576;2023-06-26T08:35:01;10.98;;;1.33;;
54929;SDS011;40833;53.238;6.576;2023-06-26T08:37:27;6.47;;;1.10;;
54929;SDS011;40833;53.238;6.576;2023-06-26T08:39:53;4.10;;;1.17;;
54929;SDS011;40833;53.238;6.576;2023-06-26T08:42:18;8.88;;;1.33;;
54929;SDS011;40833;53.238;6.576;2023-06-26T08:44:44;4.20;;;1.20;;
54929;SDS011;40833;53.238;6.576;2023-06-26T08:47:11;13.13;;;1.67;;
54929;SDS011;40833;53.238;6.576;2023-06-26T08:49:48;8.02;;;1.25;;
54929;SDS011;40833;53.238;6.576;2023-06-26T08:52:35;7.88;;;1.33;;
54929;SDS011;40833;53.238;6.576;2023-06-26T08:55:06;3.85;;;1.05;;
54929;SDS011;40833;53.238;6.576;2023-06-26T08:57:35;4.85;;;1.27;;
54929;SDS011;40833;53.238;6.576;2023-06-26T09:00:02;3.85;;;1.20;;
54929;SDS011;40833;53.238;6.576;2023-06-26T09:02:28;9.15;;;1.42;;
54929;SDS011;40833;53.238;6.576;2023-06-26T09:04:54;8.50;;;1.30;;
54929;SDS011;40833;53.238;6.576;2023-06-26T09:07:20;7.50;;;1.38;;
54929;SDS011;40833;53.238;6.576;2023-06-26T09:09:45;5.88;;;1.17;;
54929;SDS011;40833;53.238;6.576;2023-06-26T09:12:11;6.57;;;1.50;;
54929;SDS011;40833;53.238;6.576;2023-06-26T09:14:38;6.25;;;1.20;;
54929;SDS011;40833;53.238;6.576;2023-06-26T09:17:04;6.40;;;1.70;;
54929;SDS011;40833;53.238;6.576;2023-06-26T09:19:29;7.22;;;1.10;;
54929;SDS011;40833;53.238;6.576;2023-06-26T09:21:55;4.18;;;1.10;;
54929;SDS011;40833;53.238;6.576;2023-06-26T09:24:21;6.68;;;1.10;;
54929;SDS011;40833;53.238;6.576;2023-06-26T09:26:48;5.85;;;1.13;;
54929;SDS011;40833;53.238;6.576;2023-06-26T09:29:14;9.23;;;1.13;;
54929;SDS011;40833;53.238;6.576;2023-06-26T09:31:41;6.50;;;1.42;;
54929;SDS011;40833;53.238;6.576;2023-06-26T09:34:08;4.43;;;0.90;;
54929;SDS011;40833;53.238;6.576;2023-06-26T09:36:34;5.57;;;1.20;;
54929;SDS011;40833;53.238;6.576;2023-06-26T09:39:05;4.45;;;1.17;;
54929;SDS011;40833;53.238;6.576;2023-06-26T09:41:35;6.40;;;1.20;;
54929;SDS011;40833;53.238;6.576;2023-06-26T09:44:03;2.40;;;1.00;;
54929;SDS011;40833;53.238;6.576;2023-06-26T09:46:29;5.40;;;1.20;;
54929;SDS011;40833;53.238;6.576;2023-06-26T09:51:26;3.83;;;1.10;;
54929;SDS011;40833;53.238;6.576;2023-06-26T09:53:54;4.18;;;1.40;;
54929;SDS011;40833;53.238;6.576;2023-06-26T09:56:19;4.70;;;1.20;;
54929;SDS011;40833;53.238;6.576;2023-06-26T09:58:46;5.35;;;1.35;;
54929;SDS011;40833;53.238;6.576;2023-06-26T10:01:12;3.05;;;1.55;;
54929;SDS011;40833;53.238;6.576;2023-06-26T10:03:38;5.35;;;1.38;;
54929;SDS011;40833;53.238;6.576;2023-06-26T10:06:04;5.63;;;1.75;;
54929;SDS011;40833;53.238;6.576;2023-06-26T10:08:31;3.42;;;1.35;;
54929;SDS011;40833;53.238;6.576;2023-06-26T10:10:59;5.38;;;1.85;;
54929;SDS011;40833;53.238;6.576;2023-06-26T10:13:27;3.00;;;1.50;;
54929;SDS011;40833;53.238;6.576;2023-06-26T10:16:03;5.78;;;1.42;;
54929;SDS011;40833;53.238;6.576;2023-06-26T10:18:32;4.63;;;1.58;;
54929;SDS011;40833;53.238;6.576;2023-06-26T10:21:01;4.30;;;2.00;;
54929;SDS011;40833;53.238;6.576;2023-06-26T10:23:30;5.65;;;1.50;;
54929;SDS011;40833;53.238;6.576;2023-06-26T10:25:57;6.07;;;1.38;;
54929;SDS011;40833;53.238;6.576;2023-06-26T10:28:25;8.15;;;1.25;;
54929;SDS011;40833;53.238;6.576;2023-06-26T10:30:54;3.90;;;1.48;;
54929;SDS011;40833;53.238;6.576;2023-06-26T10:33:21;4.57;;;1.55;;
54929;SDS011;40833;53.238;6.576;2023-06-26T10:35:48;6.78;;;1.70;;
54929;SDS011;40833;53.238;6.576;2023-06-26T10:38:14;5.35;;;1.52;;
54929;SDS011;40833;53.238;6.576;2023-06-26T10:40:46;1.52;;;1.17;;
54929;SDS011;40833;53.238;6.576;2023-06-26T10:43:16;2.33;;;1.48;;
54929;SDS011;40833;53.238;6.576;2023-06-26T10:45:47;4.43;;;1.67;;
54929;SDS011;40833;53.238;6.576;2023-06-26T10:48:18;4.95;;;2.20;;
54929;SDS011;40833;53.238;6.576;2023-06-26T10:50:47;5.05;;;1.25;;
54929;SDS011;40833;53.238;6.576;2023-06-26T10:55:41;6.72;;;1.80;;
54929;SDS011;40833;53.238;6.576;2023-06-26T10:58:29;9.05;;;1.27;;
54929;SDS011;40833;53.238;6.576;2023-06-26T11:03:40;5.15;;;1.20;;
54929;SDS011;40833;53.238;6.576;2023-06-26T11:11:15;6.55;;;1.48;;
54929;SDS011;40833;53.238;6.576;2023-06-26T11:13:42;3.97;;;1.35;;
54929;SDS011;40833;53.238;6.576;2023-06-26T11:16:08;7.57;;;1.13;;
54929;SDS011;40833;53.238;6.576;2023-06-26T11:18:34;7.07;;;1.38;;
54929;SDS011;40833;53.238;6.576;2023-06-26T11:21:07;3.40;;;0.93;;
54929;SDS011;40833;53.238;6.576;2023-06-26T11:23:34;11.50;;;1.58;;
54929;SDS011;40833;53.238;6.576;2023-06-26T11:26:17;10.07;;;1.73;;
54929;SDS011;40833;53.238;6.576;2023-06-26T11:34:03;7.57;;;0.90;;
54929;SDS011;40833;53.238;6.576;2023-06-26T11:36:39;5.90;;;0.98;;
54929;SDS011;40833;53.238;6.576;2023-06-26T11:39:07;10.90;;;1.02;;
54929;SDS011;40833;53.238;6.576;2023-06-26T11:41:34;9.38;;;1.23;;
54929;SDS011;40833;53.238;6.576;2023-06-26T11:44:04;4.43;;;0.90;;
54929;SDS011;40833;53.238;6.576;2023-06-26T11:46:32;4.57;;;0.73;;
54929;SDS011;40833;53.238;6.576;2023-06-26T11:48:59;5.85;;;0.98;;
54929;SDS011;40833;53.238;6.576;2023-06-26T11:51:27;4.93;;;1.05;;
54929;SDS011;40833;53.238;6.576;2023-06-26T11:53:54;5.00;;;0.90;;
54929;SDS011;40833;53.238;6.576;2023-06-26T11:56:19;5.18;;;0.70;;
54929;SDS011;40833;53.238;6.576;2023-06-26T11:59:03;5.78;;;0.68;;
54929;SDS011;40833;53.238;6.576;2023-06-26T12:01:34;6.10;;;1.00;;
54929;SDS011;40833;53.238;6.576;2023-06-26T12:04:07;10.45;;;1.80;;
54929;SDS011;40833;53.238;6.576;2023-06-26T12:06:38;4.00;;;0.85;;
54929;SDS011;40833;53.238;6.576;2023-06-26T12:09:07;6.85;;;0.52;;
54929;SDS011;40833;53.238;6.576;2023-06-26T12:11:36;10.57;;;1.00;;
54929;SDS011;40833;53.238;6.576;2023-06-26T12:14:04;4.78;;;0.73;;
54929;SDS011;40833;53.238;6.576;2023-06-26T12:16:31;5.50;;;0.85;;
54929;SDS011;40833;53.238;6.576;2023-06-26T12:19:02;8.80;;;0.93;;
54929;SDS011;40833;53.238;6.576;2023-06-26T12:24:13;13.77;;;1.17;;
54929;SDS011;40833;53.238;6.576;2023-06-26T12:26:44;5.25;;;0.95;;
54929;SDS011;40833;53.238;6.576;2023-06-26T12:29:15;7.55;;;1.10;;
54929;SDS011;40833;53.238;6.576;2023-06-26T12:31:45;4.20;;;0.98;;
54929;SDS011;40833;53.238;6.576;2023-06-26T12:34:14;4.03;;;0.47;;
54929;SDS011;40833;53.238;6.576;2023-06-26T12:36:44;9.48;;;1.10;;
54929;SDS011;40833;53.238;6.576;2023-06-26T12:39:11;6.45;;;0.75;;
54929;SDS011;40833;53.238;6.576;2023-06-26T12:44:30;2.85;;;1.15;;
54929;SDS011;40833;53.238;6.576;2023-06-26T12:46:58;8.25;;;0.57;;
54929;SDS011;40833;53.238;6.576;2023-06-26T12:49:37;3.75;;;0.60;;
54929;SDS011;40833;53.238;6.576;2023-06-26T12:52:05;7.72;;;1.48;;
54929;SDS011;40833;53.238;6.576;2023-06-26T12:54:35;8.20;;;1.27;;
54929;SDS011;40833;53.238;6.576;2023-06-26T12:57:02;6.22;;;1.20;;
54929;SDS011;40833;53.238;6.576;2023-06-26T12:59:34;6.18;;;0.85;;
54929;SDS011;40833;53.238;6.576;2023-06-26T13:02:03;7.47;;;0.77;;
54929;SDS011;40833;53.238;6.576;2023-06-26T13:04:29;6.60;;;0.80;;
54929;SDS011;40833;53.238;6.576;2023-06-26T13:06:55;8.98;;;1.23;;
54929;SDS011;40833;53.238;6.576;2023-06-26T13:12:05;4.68;;;0.73;;
54929;SDS011;40833;53.238;6.576;2023-06-26T13:14:32;5.15;;;0.85;;
54929;SDS011;40833;53.238;6.576;2023-06-26T13:16:57;11.38;;;0.82;;
54929;SDS011;40833;53.238;6.576;2023-06-26T13:19:25;5.22;;;1.02;;
54929;SDS011;40833;53.238;6.576;2023-06-26T13:21:51;10.82;;;0.93;;
54929;SDS011;40833;53.238;6.576;2023-06-26T13:27:03;6.38;;;0.77;;
54929;SDS011;40833;53.238;6.576;2023-06-26T13:29:31;8.00;;;1.25;;
54929;SDS011;40833;53.238;6.576;2023-06-26T13:31:56;5.13;;;1.02;;
54929;SDS011;40833;53.238;6.576;2023-06-26T13:34:22;5.63;;;0.93;;
54929;SDS011;40833;53.238;6.576;2023-06-26T13:36:49;11.73;;;1.55;;
54929;SDS011;40833;53.238;6.576;2023-06-26T13:39:15;6.05;;;1.10;;
54929;SDS011;40833;53.238;6.576;2023-06-26T13:41:40;5.45;;;1.10;;
54929;SDS011;40833;53.238;6.576;2023-06-26T13:44:06;4.90;;;1.00;;
54929;SDS011;40833;53.238;6.576;2023-06-26T13:46:32;9.82;;;1.20;;
54929;SDS011;40833;53.238;6.576;2023-06-26T13:48:58;9.27;;;1.40;;
54929;SDS011;40833;53.238;6.576;2023-06-26T13:51:25;6.40;;;1.00;;
54929;SDS011;40833;53.238;6.576;2023-06-26T13:53:52;6.28;;;0.93;;
54929;SDS011;40833;53.238;6.576;2023-06-26T13:56:18;7.70;;;1.33;;
54929;SDS011;40833;53.238;6.576;2023-06-26T13:58:44;6.65;;;1.20;;
54929;SDS011;40833;53.238;6.576;2023-06-26T14:01:10;3.13;;;0.70;;
54929;SDS011;40833;53.238;6.576;2023-06-26T14:03:35;5.25;;;1.02;;
54929;SDS011;40833;53.238;6.576;2023-06-26T14:06:01;7.45;;;1.30;;
54929;SDS011;40833;53.238;6.576;2023-06-26T14:08:26;5.07;;;0.95;;
54929;SDS011;40833;53.238;6.576;2023-06-26T14:10:52;6.75;;;1.05;;
54929;SDS011;40833;53.238;6.576;2023-06-26T14:13:18;11.00;;;1.15;;
54929;SDS011;40833;53.238;6.576;2023-06-26T14:15:44;3.47;;;0.82;;
54929;SDS011;40833;53.238;6.576;2023-06-26T14:18:09;14.00;;;1.45;;
54929;SDS011;40833;53.238;6.576;2023-06-26T14:20:35;9.73;;;1.15;;
54929;SDS011;40833;53.238;6.576;2023-06-26T14:23:01;6.97;;;0.93;;
54929;SDS011;40833;53.238;6.576;2023-06-26T14:25:27;10.10;;;1.60;;
54929;SDS011;40833;53.238;6.576;2023-06-26T14:27:53;5.68;;;0.77;;
54929;SDS011;40833;53.238;6.576;2023-06-26T14:30:20;11.85;;;1.33;;
54929;SDS011;40833;53.238;6.576;2023-06-26T14:32:46;9.45;;;1.00;;
54929;SDS011;40833;53.238;6.576;2023-06-26T14:35:12;6.38;;;0.95;;
54929;SDS011;40833;53.238;6.576;2023-06-26T14:37:37;6.13;;;1.10;;
54929;SDS011;40833;53.238;6.576;2023-06-26T14:40:05;6.60;;;1.67;;
54929;SDS011;40833;53.238;6.576;2023-06-26T14:42:32;3.95;;;0.77;;
54929;SDS011;40833;53.238;6.576;2023-06-26T14:44:58;3.67;;;1.10;;
54929;SDS011;40833;53.238;6.576;2023-06-26T14:47:24;5.13;;;0.85;;
54929;SDS011;40833;53.238;6.576;2023-06-26T14:49:50;7.40;;;1.00;;
54929;SDS011;40833;53.238;6.576;2023-06-26T14:52:15;7.15;;;1.73;;
54929;SDS011;40833;53.238;6.576;2023-06-26T14:54:41;4.32;;;1.02;;
54929;SDS011;40833;53.238;6.576;2023-06-26T14:57:07;9.00;;;0.90;;
54929;SDS011;40833;53.238;6.576;2023-06-26T14:59:32;7.75;;;1.00;;
54929;SDS011;40833;53.238;6.576;2023-06-26T15:01:58;8.95;;;0.93;;
54929;SDS011;40833;53.238;6.576;2023-06-26T15:04:24;7.57;;;1.05;;
54929;SDS011;40833;53.238;6.576;2023-06-26T15:06:49;7.80;;;1.33;;
54929;SDS011;40833;53.238;6.576;2023-06-26T15:09:15;8.27;;;1.30;;
54929;SDS011;40833;53.238;6.576;2023-06-26T15:11:41;5.80;;;0.80;;
54929;SDS011;40833;53.238;6.576;2023-06-26T15:14:08;5.47;;;1.08;;
54929;SDS011;40833;53.238;6.576;2023-06-26T15:16:33;6.10;;;1.00;;
54929;SDS011;40833;53.238;6.576;2023-06-26T15:18:59;8.85;;;0.90;;
54929;SDS011;40833;53.238;6.576;2023-06-26T15:21:25;6.03;;;0.95;;
54929;SDS011;40833;53.238;6.576;2023-06-26T15:23:51;9.55;;;1.05;;
54929;SDS011;40833;53.238;6.576;2023-06-26T15:26:17;6.80;;;0.90;;
54929;SDS011;40833;53.238;6.576;2023-06-26T15:28:42;5.28;;;0.82;;
54929;SDS011;40833;53.238;6.576;2023-06-26T15:31:08;7.35;;;1.05;;
54929;SDS011;40833;53.238;6.576;2023-06-26T15:33:34;7.63;;;1.27;;
54929;SDS011;40833;53.238;6.576;2023-06-26T15:36:00;8.35;;;1.90;;
54929;SDS011;40833;53.238;6.576;2023-06-26T15:38:28;9.05;;;1.73;;
54929;SDS011;40833;53.238;6.576;2023-06-26T15:40:54;6.72;;;1.00;;
54929;SDS011;40833;53.238;6.576;2023-06-26T15:43:20;7.07;;;1.15;;
54929;SDS011;40833;53.238;6.576;2023-06-26T15:45:45;2.75;;;0.70;;